Tuesday, July 29, 2014
06:45 UTC
  |  Log In   |  Register Free
Airport Search:

Lenawee County Airport
(KADG)

Lenawee County Airport Diagram
No Airport Diagram Available

FAA data valid effective July 24, 2014 until September 18, 2014 (unless otherwise noted).

 
 
 
 
 
 
 
 
 
 
 
 
 
 

Current Aviation Weather for Lenawee County Airport (KADG)

The most recent METAR observation for KADG was updated at: 1753 UTC
METAR Summary (Translated METAR)
KADG
281753Z AUTO 36010KT 310V020 10SM FEW044 SCT050 OVC070 21/12 A2994 RMK AO2 SLP139 T02060122 10217 20172 51005 TSNO
KDUH
(20.4 nm SE from KADG)
281835Z AUTO 33009G15KT 10SM SCT042 SCT060 BKN070 22/11 A2992 RMK AO2
TAF Summary (Translated TAF)
KTOL
(20.7 nm SE from KADG)
290540Z 2906/3006 32003KT P6SM FEW050 FM291500 27007KT P6SM FEW035 BKN080 FM292100 26007KT P6SM -SHRA BKN050 FM300100 25005KT P6SM SCT040 BKN100
  Airport Weather Conditions for KADG

 Current Weather at ADG
49° F
Fair
Northwest winds at 3.5 mph
ADG NOAA Radar

Pressure: 30.02 in
Humidity: 93%
Wind: Northwest at 3.5 MPH (3 KT)
Dew Point: 46.9°F
Visibility: 10.00 mi


Airport Weather Forecast for KADG

Translated METAR and TAF for KADG
Translated METAR for KADG (0638 UTC 29 July 2014)
found at http://aviationweather.gov/adds/metars/
 
METAR text: KADG 290553Z AUTO 30003KT 10SM CLR 09/08 A3002 RMK AO2 SLP168 T00940083 10189 20094 56003 TSNO
Conditions at: KADG (ADRIAN , MI, US) observed 0553 UTC 29 July 2014
Temperature: 9.4°C (49°F)
Dewpoint: 8.3°C (47°F) [RH = 93%]
Pressure (altimeter): 30.02 inches Hg (1016.7 mb)
[Sea-level pressure: 1016.8 mb]
Winds: from the WNW (300 degrees) at 3 MPH (3 knots; 1.6 m/s)
Visibility: 10 or more miles (16+ km)
Ceiling: at least 12,000 feet AGL
Clouds: sky clear below 12,000 feet AGL
Weather: automated observation with no human augmentation;
there may or may not be significant weather present at this time
Translated TAF for KADG

There is no translated TAF available for this airport

Find All Airport Services Find A Hotel Find A Rental Car Find A Golf Course Find A Restaurant $100 Hamburger



FBO's on the Field
FBO Company Facility Photos Services Transportation Aviation Fuel Prices: Prices include tax
Catering Weather Repair Courtesy Rental Type 100LL JetA JetA+ MOGAS 8087
 
Lenawee County Airport

This FBO has not yet been rated
FS:Avfuel
Last Updated: Jul-28
Login to update fuel prices
SS:
Contact Lenawee County AirportMore FBO Information
 
Add another FBO Facility Photos Catering Weather Repair Courtesy Rental Type 100LL JetA JetA+ MOGAS 8087
Services Transportation Aviation Fuel Prices: Prices include tax


GlobalAir.com Airport Resource Center model-print
model-print
model-print
model-print